Terminal Aerodrome Forecast
Issued by NWS

Home | Current Version | Previous Version | Text Only | Print | Product List | Glossary On
Versions: 1 2 3 4 5 6 7 8 9 10 11 12 13 14 15 16 17 18 19 20 21 22 23 24 25 26
000
FTUS41 KRLX 110200 AAA
TAFCKB
TAF AMD
KCKB 110224Z 1102/1124 02004KT P6SM FEW070
     FM110600 00000KT 5SM BR SKC
     FM110900 00000KT 2SM BR SCT001
     FM111200 00000KT 3SM BR FEW060
     FM111230 00000KT P6SM SKC
     FM111500 VRB03KT P6SM SCT050=

USA.gov is the U.S. government's official web portal to all federal, state and local government web resources and services.